sensor_id;sensor_type;location;lat;lon;timestamp;P1;durP1;ratioP1;P2;durP2;ratioP2
29570;SDS011;16814;52.118;11.436;2023-04-24T00:02:01;7.30;;;5.13;;
29570;SDS011;16814;52.118;11.436;2023-04-24T00:04:28;10.00;;;5.35;;
29570;SDS011;16814;52.118;11.436;2023-04-24T00:06:55;6.63;;;4.90;;
29570;SDS011;16814;52.118;11.436;2023-04-24T00:09:22;8.77;;;4.53;;
29570;SDS011;16814;52.118;11.436;2023-04-24T00:11:49;4.80;;;3.87;;
29570;SDS011;16814;52.118;11.436;2023-04-24T00:14:15;4.78;;;3.70;;
29570;SDS011;16814;52.118;11.436;2023-04-24T00:16:42;5.00;;;3.80;;
29570;SDS011;16814;52.118;11.436;2023-04-24T00:19:08;5.03;;;3.70;;
29570;SDS011;16814;52.118;11.436;2023-04-24T00:21:33;6.00;;;3.73;;
29570;SDS011;16814;52.118;11.436;2023-04-24T00:24:01;6.47;;;3.47;;
29570;SDS011;16814;52.118;11.436;2023-04-24T00:26:27;6.10;;;3.65;;
29570;SDS011;16814;52.118;11.436;2023-04-24T00:28:55;7.05;;;3.80;;
29570;SDS011;16814;52.118;11.436;2023-04-24T00:31:22;7.35;;;3.30;;
29570;SDS011;16814;52.118;11.436;2023-04-24T00:33:50;5.38;;;3.40;;
29570;SDS011;16814;52.118;11.436;2023-04-24T00:36:17;5.87;;;2.90;;
29570;SDS011;16814;52.118;11.436;2023-04-24T00:38:45;4.53;;;3.40;;
29570;SDS011;16814;52.118;11.436;2023-04-24T00:41:11;7.95;;;3.58;;
29570;SDS011;16814;52.118;11.436;2023-04-24T00:43:37;5.93;;;3.50;;
29570;SDS011;16814;52.118;11.436;2023-04-24T00:46:07;4.25;;;3.00;;
29570;SDS011;16814;52.118;11.436;2023-04-24T00:48:34;4.77;;;3.03;;
29570;SDS011;16814;52.118;11.436;2023-04-24T00:51:01;4.53;;;2.80;;
29570;SDS011;16814;52.118;11.436;2023-04-24T00:53:29;3.92;;;2.42;;
29570;SDS011;16814;52.118;11.436;2023-04-24T00:55:55;6.15;;;2.10;;
29570;SDS011;16814;52.118;11.436;2023-04-24T00:58:21;2.13;;;1.75;;
29570;SDS011;16814;52.118;11.436;2023-04-24T01:00:50;4.20;;;1.90;;
29570;SDS011;16814;52.118;11.436;2023-04-24T01:03:24;3.38;;;1.70;;
29570;SDS011;16814;52.118;11.436;2023-04-24T01:05:52;1.55;;;1.40;;
29570;SDS011;16814;52.118;11.436;2023-04-24T01:08:27;3.45;;;1.65;;
29570;SDS011;16814;52.118;11.436;2023-04-24T01:10:53;3.97;;;1.77;;
29570;SDS011;16814;52.118;11.436;2023-04-24T01:13:21;2.30;;;1.60;;
29570;SDS011;16814;52.118;11.436;2023-04-24T01:15:48;4.25;;;1.75;;
29570;SDS011;16814;52.118;11.436;2023-04-24T01:18:17;2.30;;;1.50;;
29570;SDS011;16814;52.118;11.436;2023-04-24T01:20:42;2.60;;;1.65;;
29570;SDS011;16814;52.118;11.436;2023-04-24T01:23:11;2.45;;;1.67;;
29570;SDS011;16814;52.118;11.436;2023-04-24T01:25:37;2.25;;;1.50;;
29570;SDS011;16814;52.118;11.436;2023-04-24T01:28:07;3.40;;;1.88;;
29570;SDS011;16814;52.118;11.436;2023-04-24T01:30:36;2.75;;;1.83;;
29570;SDS011;16814;52.118;11.436;2023-04-24T01:33:06;2.30;;;1.50;;
29570;SDS011;16814;52.118;11.436;2023-04-24T01:35:33;3.35;;;1.70;;
29570;SDS011;16814;52.118;11.436;2023-04-24T01:38:01;2.25;;;1.50;;
29570;SDS011;16814;52.118;11.436;2023-04-24T01:40:28;4.40;;;1.60;;
29570;SDS011;16814;52.118;11.436;2023-04-24T01:42:57;2.10;;;1.50;;
29570;SDS011;16814;52.118;11.436;2023-04-24T01:45:26;2.45;;;1.50;;
29570;SDS011;16814;52.118;11.436;2023-04-24T01:47:53;2.28;;;1.48;;
29570;SDS011;16814;52.118;11.436;2023-04-24T01:50:21;2.20;;;1.50;;
29570;SDS011;16814;52.118;11.436;2023-04-24T01:52:57;2.35;;;1.40;;
29570;SDS011;16814;52.118;11.436;2023-04-24T01:55:27;3.45;;;1.40;;
29570;SDS011;16814;52.118;11.436;2023-04-24T01:57:55;5.25;;;1.80;;
29570;SDS011;16814;52.118;11.436;2023-04-24T02:00:23;2.97;;;1.55;;
29570;SDS011;16814;52.118;11.436;2023-04-24T02:02:50;1.88;;;1.27;;
29570;SDS011;16814;52.118;11.436;2023-04-24T02:05:18;3.58;;;1.63;;
29570;SDS011;16814;52.118;11.436;2023-04-24T02:07:47;2.97;;;1.30;;
29570;SDS011;16814;52.118;11.436;2023-04-24T02:10:13;2.28;;;1.33;;
29570;SDS011;16814;52.118;11.436;2023-04-24T02:12:42;3.40;;;1.52;;
29570;SDS011;16814;52.118;11.436;2023-04-24T02:15:09;2.63;;;1.60;;
29570;SDS011;16814;52.118;11.436;2023-04-24T02:17:38;6.77;;;1.60;;
29570;SDS011;16814;52.118;11.436;2023-04-24T02:20:06;2.85;;;1.65;;
29570;SDS011;16814;52.118;11.436;2023-04-24T02:22:35;2.60;;;1.50;;
29570;SDS011;16814;52.118;11.436;2023-04-24T02:25:01;2.40;;;1.60;;
29570;SDS011;16814;52.118;11.436;2023-04-24T02:27:27;2.22;;;1.40;;
29570;SDS011;16814;52.118;11.436;2023-04-24T02:29:54;3.00;;;1.60;;
29570;SDS011;16814;52.118;11.436;2023-04-24T02:32:20;4.53;;;1.70;;
29570;SDS011;16814;52.118;11.436;2023-04-24T02:34:47;3.35;;;2.20;;
29570;SDS011;16814;52.118;11.436;2023-04-24T02:37:16;3.83;;;1.97;;
29570;SDS011;16814;52.118;11.436;2023-04-24T02:39:42;3.45;;;1.40;;
29570;SDS011;16814;52.118;11.436;2023-04-24T02:42:09;3.00;;;1.60;;
29570;SDS011;16814;52.118;11.436;2023-04-24T02:44:37;2.40;;;1.58;;
29570;SDS011;16814;52.118;11.436;2023-04-24T02:47:02;1.55;;;1.20;;
29570;SDS011;16814;52.118;11.436;2023-04-24T02:49:31;3.22;;;1.58;;
29570;SDS011;16814;52.118;11.436;2023-04-24T02:51:57;2.63;;;1.60;;
29570;SDS011;16814;52.118;11.436;2023-04-24T02:54:24;1.93;;;1.40;;
29570;SDS011;16814;52.118;11.436;2023-04-24T02:56:50;4.57;;;1.43;;
29570;SDS011;16814;52.118;11.436;2023-04-24T02:59:18;3.45;;;1.52;;
29570;SDS011;16814;52.118;11.436;2023-04-24T03:01:45;5.18;;;1.70;;
29570;SDS011;16814;52.118;11.436;2023-04-24T03:04:12;2.30;;;1.45;;
29570;SDS011;16814;52.118;11.436;2023-04-24T03:06:38;5.78;;;1.77;;
29570;SDS011;16814;52.118;11.436;2023-04-24T03:09:04;2.50;;;1.50;;
29570;SDS011;16814;52.118;11.436;2023-04-24T03:11:30;2.90;;;1.58;;
29570;SDS011;16814;52.118;11.436;2023-04-24T03:13:57;3.47;;;1.80;;
29570;SDS011;16814;52.118;11.436;2023-04-24T03:16:25;2.05;;;1.50;;
29570;SDS011;16814;52.118;11.436;2023-04-24T03:18:51;4.13;;;1.52;;
29570;SDS011;16814;52.118;11.436;2023-04-24T03:21:19;2.95;;;1.42;;
29570;SDS011;16814;52.118;11.436;2023-04-24T03:23:48;2.75;;;1.50;;
29570;SDS011;16814;52.118;11.436;2023-04-24T03:26:13;3.03;;;1.83;;
29570;SDS011;16814;52.118;11.436;2023-04-24T03:28:41;3.25;;;1.55;;
29570;SDS011;16814;52.118;11.436;2023-04-24T03:31:06;3.07;;;1.40;;
29570;SDS011;16814;52.118;11.436;2023-04-24T03:33:34;3.10;;;1.47;;
29570;SDS011;16814;52.118;11.436;2023-04-24T03:36:01;2.85;;;1.45;;
29570;SDS011;16814;52.118;11.436;2023-04-24T03:38:28;2.42;;;1.38;;
29570;SDS011;16814;52.118;11.436;2023-04-24T03:40:54;3.40;;;1.40;;
29570;SDS011;16814;52.118;11.436;2023-04-24T03:43:23;3.17;;;1.20;;
29570;SDS011;16814;52.118;11.436;2023-04-24T03:45:49;3.40;;;1.38;;
29570;SDS011;16814;52.118;11.436;2023-04-24T03:48:18;4.40;;;1.40;;
29570;SDS011;16814;52.118;11.436;2023-04-24T03:50:44;4.85;;;1.70;;
29570;SDS011;16814;52.118;11.436;2023-04-24T03:53:12;4.57;;;1.55;;
29570;SDS011;16814;52.118;11.436;2023-04-24T03:55:39;3.35;;;1.60;;
29570;SDS011;16814;52.118;11.436;2023-04-24T03:58:07;2.40;;;1.50;;
29570;SDS011;16814;52.118;11.436;2023-04-24T04:00:35;4.10;;;1.55;;
29570;SDS011;16814;52.118;11.436;2023-04-24T04:03:03;3.03;;;1.50;;
29570;SDS011;16814;52.118;11.436;2023-04-24T04:05:30;2.13;;;1.50;;
29570;SDS011;16814;52.118;11.436;2023-04-24T04:07:57;2.63;;;1.40;;
29570;SDS011;16814;52.118;11.436;2023-04-24T04:10:25;2.47;;;1.50;;
29570;SDS011;16814;52.118;11.436;2023-04-24T04:12:52;8.70;;;2.40;;
29570;SDS011;16814;52.118;11.436;2023-04-24T04:15:19;3.83;;;1.40;;
29570;SDS011;16814;52.118;11.436;2023-04-24T04:17:47;4.40;;;1.60;;
29570;SDS011;16814;52.118;11.436;2023-04-24T04:20:16;7.90;;;1.90;;
29570;SDS011;16814;52.118;11.436;2023-04-24T04:22:41;16.48;;;2.00;;
29570;SDS011;16814;52.118;11.436;2023-04-24T04:25:07;57.60;;;4.40;;
29570;SDS011;16814;52.118;11.436;2023-04-24T04:27:35;115.97;;;7.00;;
29570;SDS011;16814;52.118;11.436;2023-04-24T04:30:02;251.47;;;11.97;;
29570;SDS011;16814;52.118;11.436;2023-04-24T04:32:36;35.53;;;2.90;;
29570;SDS011;16814;52.118;11.436;2023-04-24T04:35:02;86.90;;;4.90;;
29570;SDS011;16814;52.118;11.436;2023-04-24T04:37:30;69.43;;;4.93;;
29570;SDS011;16814;52.118;11.436;2023-04-24T04:40:00;35.75;;;3.30;;
29570;SDS011;16814;52.118;11.436;2023-04-24T04:42:32;4.88;;;1.50;;
29570;SDS011;16814;52.118;11.436;2023-04-24T04:45:01;3.08;;;1.50;;
29570;SDS011;16814;52.118;11.436;2023-04-24T04:47:27;2.85;;;1.30;;
29570;SDS011;16814;52.118;11.436;2023-04-24T04:49:54;7.83;;;1.40;;
29570;SDS011;16814;52.118;11.436;2023-04-24T04:52:23;5.82;;;1.40;;
29570;SDS011;16814;52.118;11.436;2023-04-24T04:54:53;4.07;;;1.40;;
29570;SDS011;16814;52.118;11.436;2023-04-24T04:57:20;3.30;;;1.40;;
29570;SDS011;16814;52.118;11.436;2023-04-24T04:59:47;7.53;;;1.40;;
29570;SDS011;16814;52.118;11.436;2023-04-24T05:02:14;2.45;;;1.30;;
29570;SDS011;16814;52.118;11.436;2023-04-24T05:04:42;3.05;;;1.30;;
29570;SDS011;16814;52.118;11.436;2023-04-24T05:07:08;3.00;;;1.30;;
29570;SDS011;16814;52.118;11.436;2023-04-24T05:09:43;2.58;;;1.00;;
29570;SDS011;16814;52.118;11.436;2023-04-24T05:12:11;3.60;;;1.08;;
29570;SDS011;16814;52.118;11.436;2023-04-24T05:14:36;3.03;;;1.00;;
29570;SDS011;16814;52.118;11.436;2023-04-24T05:17:03;3.77;;;1.20;;
29570;SDS011;16814;52.118;11.436;2023-04-24T05:19:30;2.30;;;1.10;;
29570;SDS011;16814;52.118;11.436;2023-04-24T05:22:01;2.22;;;1.20;;
29570;SDS011;16814;52.118;11.436;2023-04-24T05:24:35;2.70;;;0.90;;
29570;SDS011;16814;52.118;11.436;2023-04-24T05:27:02;5.25;;;1.17;;
29570;SDS011;16814;52.118;11.436;2023-04-24T05:29:34;3.05;;;1.02;;
29570;SDS011;16814;52.118;11.436;2023-04-24T05:32:02;4.45;;;1.10;;
29570;SDS011;16814;52.118;11.436;2023-04-24T05:34:31;4.33;;;1.30;;
29570;SDS011;16814;52.118;11.436;2023-04-24T05:37:02;4.40;;;1.85;;
29570;SDS011;16814;52.118;11.436;2023-04-24T05:39:29;3.40;;;1.13;;
29570;SDS011;16814;52.118;11.436;2023-04-24T05:41:55;5.57;;;1.40;;
29570;SDS011;16814;52.118;11.436;2023-04-24T05:44:23;6.25;;;1.27;;
29570;SDS011;16814;52.118;11.436;2023-04-24T05:46:50;3.28;;;1.25;;
29570;SDS011;16814;52.118;11.436;2023-04-24T05:49:16;6.72;;;1.40;;
29570;SDS011;16814;52.118;11.436;2023-04-24T05:51:42;3.33;;;1.33;;
29570;SDS011;16814;52.118;11.436;2023-04-24T05:54:09;2.08;;;1.00;;
29570;SDS011;16814;52.118;11.436;2023-04-24T05:56:46;2.22;;;1.30;;
29570;SDS011;16814;52.118;11.436;2023-04-24T05:59:12;3.93;;;1.10;;
29570;SDS011;16814;52.118;11.436;2023-04-24T06:01:39;3.35;;;1.20;;
29570;SDS011;16814;52.118;11.436;2023-04-24T06:04:07;2.17;;;1.23;;
29570;SDS011;16814;52.118;11.436;2023-04-24T06:06:33;5.80;;;1.40;;
29570;SDS011;16814;52.118;11.436;2023-04-24T06:09:00;5.15;;;1.35;;
29570;SDS011;16814;52.118;11.436;2023-04-24T06:11:27;2.60;;;1.25;;
29570;SDS011;16814;52.118;11.436;2023-04-24T06:13:53;2.50;;;1.40;;
29570;SDS011;16814;52.118;11.436;2023-04-24T06:16:19;2.45;;;1.30;;
29570;SDS011;16814;52.118;11.436;2023-04-24T06:18:46;4.53;;;1.23;;
29570;SDS011;16814;52.118;11.436;2023-04-24T06:21:13;3.13;;;1.30;;
29570;SDS011;16814;52.118;11.436;2023-04-24T06:23:42;3.95;;;1.50;;
29570;SDS011;16814;52.118;11.436;2023-04-24T06:26:08;2.35;;;1.52;;
29570;SDS011;16814;52.118;11.436;2023-04-24T06:28:36;3.28;;;1.30;;
29570;SDS011;16814;52.118;11.436;2023-04-24T06:31:03;3.72;;;1.50;;
29570;SDS011;16814;52.118;11.436;2023-04-24T06:33:30;2.72;;;1.15;;
29570;SDS011;16814;52.118;11.436;2023-04-24T06:35:57;7.73;;;1.73;;
29570;SDS011;16814;52.118;11.436;2023-04-24T06:38:25;3.60;;;1.50;;
29570;SDS011;16814;52.118;11.436;2023-04-24T06:41:02;2.88;;;1.48;;
29570;SDS011;16814;52.118;11.436;2023-04-24T06:43:30;2.70;;;1.40;;
29570;SDS011;16814;52.118;11.436;2023-04-24T06:45:57;5.80;;;1.63;;
29570;SDS011;16814;52.118;11.436;2023-04-24T06:48:25;4.27;;;1.70;;
29570;SDS011;16814;52.118;11.436;2023-04-24T06:50:51;6.65;;;1.52;;
29570;SDS011;16814;52.118;11.436;2023-04-24T06:53:20;7.60;;;1.63;;
29570;SDS011;16814;52.118;11.436;2023-04-24T06:55:47;4.43;;;1.63;;
29570;SDS011;16814;52.118;11.436;2023-04-24T06:58:17;3.37;;;1.33;;
29570;SDS011;16814;52.118;11.436;2023-04-24T07:00:50;4.50;;;1.43;;
29570;SDS011;16814;52.118;11.436;2023-04-24T07:03:15;3.60;;;1.35;;
29570;SDS011;16814;52.118;11.436;2023-04-24T07:05:44;4.63;;;1.25;;
29570;SDS011;16814;52.118;11.436;2023-04-24T07:08:12;2.50;;;1.50;;
29570;SDS011;16814;52.118;11.436;2023-04-24T07:10:39;4.00;;;1.50;;
29570;SDS011;16814;52.118;11.436;2023-04-24T07:13:05;3.13;;;1.70;;
29570;SDS011;16814;52.118;11.436;2023-04-24T07:15:33;2.90;;;1.63;;
29570;SDS011;16814;52.118;11.436;2023-04-24T07:18:01;6.07;;;1.80;;
29570;SDS011;16814;52.118;11.436;2023-04-24T07:20:28;3.37;;;1.50;;
29570;SDS011;16814;52.118;11.436;2023-04-24T07:22:56;3.22;;;1.40;;
29570;SDS011;16814;52.118;11.436;2023-04-24T07:25:24;8.02;;;1.63;;
29570;SDS011;16814;52.118;11.436;2023-04-24T07:27:52;3.30;;;1.40;;
29570;SDS011;16814;52.118;11.436;2023-04-24T07:30:19;4.20;;;1.50;;
29570;SDS011;16814;52.118;11.436;2023-04-24T07:32:46;5.88;;;1.40;;
29570;SDS011;16814;52.118;11.436;2023-04-24T07:35:13;8.37;;;1.50;;
29570;SDS011;16814;52.118;11.436;2023-04-24T07:37:42;4.07;;;1.35;;
29570;SDS011;16814;52.118;11.436;2023-04-24T07:40:14;3.60;;;1.50;;
29570;SDS011;16814;52.118;11.436;2023-04-24T07:42:42;2.88;;;1.50;;
29570;SDS011;16814;52.118;11.436;2023-04-24T07:45:09;4.85;;;1.50;;
29570;SDS011;16814;52.118;11.436;2023-04-24T07:47:34;4.70;;;1.20;;
29570;SDS011;16814;52.118;11.436;2023-04-24T07:50:05;2.10;;;1.13;;
29570;SDS011;16814;52.118;11.436;2023-04-24T07:52:33;3.97;;;1.30;;
29570;SDS011;16814;52.118;11.436;2023-04-24T07:55:09;2.58;;;1.30;;
29570;SDS011;16814;52.118;11.436;2023-04-24T07:57:39;3.00;;;1.02;;
29570;SDS011;16814;52.118;11.436;2023-04-24T08:00:11;2.30;;;1.20;;
29570;SDS011;16814;52.118;11.436;2023-04-24T08:02:41;1.48;;;1.10;;
29570;SDS011;16814;52.118;11.436;2023-04-24T08:05:10;4.22;;;1.30;;
29570;SDS011;16814;52.118;11.436;2023-04-24T08:07:36;2.17;;;1.20;;
29570;SDS011;16814;52.118;11.436;2023-04-24T08:10:09;3.77;;;0.90;;
29570;SDS011;16814;52.118;11.436;2023-04-24T08:12:38;3.83;;;0.88;;
29570;SDS011;16814;52.118;11.436;2023-04-24T08:15:04;2.13;;;1.00;;
29570;SDS011;16814;52.118;11.436;2023-04-24T08:17:30;1.73;;;0.93;;
29570;SDS011;16814;52.118;11.436;2023-04-24T08:19:57;3.22;;;0.90;;
29570;SDS011;16814;52.118;11.436;2023-04-24T08:22:27;2.60;;;0.90;;
29570;SDS011;16814;52.118;11.436;2023-04-24T08:24:55;4.13;;;0.70;;
29570;SDS011;16814;52.118;11.436;2023-04-24T08:27:22;3.58;;;0.93;;
29570;SDS011;16814;52.118;11.436;2023-04-24T08:29:54;5.00;;;1.27;;
29570;SDS011;16814;52.118;11.436;2023-04-24T08:32:21;6.15;;;1.13;;
29570;SDS011;16814;52.118;11.436;2023-04-24T08:34:50;4.00;;;1.00;;
29570;SDS011;16814;52.118;11.436;2023-04-24T08:37:18;4.18;;;0.90;;
29570;SDS011;16814;52.118;11.436;2023-04-24T08:39:45;2.13;;;0.90;;
29570;SDS011;16814;52.118;11.436;2023-04-24T08:42:15;3.50;;;1.02;;
29570;SDS011;16814;52.118;11.436;2023-04-24T08:44:43;1.48;;;1.00;;
29570;SDS011;16814;52.118;11.436;2023-04-24T08:47:11;3.15;;;0.80;;
29570;SDS011;16814;52.118;11.436;2023-04-24T08:49:38;2.10;;;0.90;;
29570;SDS011;16814;52.118;11.436;2023-04-24T08:52:05;4.10;;;1.10;;
29570;SDS011;16814;52.118;11.436;2023-04-24T08:54:31;3.20;;;1.00;;
29570;SDS011;16814;52.118;11.436;2023-04-24T08:57:02;1.95;;;0.82;;
29570;SDS011;16814;52.118;11.436;2023-04-24T08:59:30;2.58;;;1.00;;
29570;SDS011;16814;52.118;11.436;2023-04-24T09:01:59;2.45;;;1.02;;
29570;SDS011;16814;52.118;11.436;2023-04-24T09:04:26;1.77;;;0.90;;
29570;SDS011;16814;52.118;11.436;2023-04-24T09:06:56;1.65;;;0.80;;
29570;SDS011;16814;52.118;11.436;2023-04-24T09:09:29;2.22;;;0.93;;
29570;SDS011;16814;52.118;11.436;2023-04-24T09:11:58;1.30;;;0.70;;
29570;SDS011;16814;52.118;11.436;2023-04-24T09:14:25;3.35;;;0.80;;
29570;SDS011;16814;52.118;11.436;2023-04-24T09:16:51;2.50;;;0.80;;
29570;SDS011;16814;52.118;11.436;2023-04-24T09:19:19;2.50;;;1.05;;
29570;SDS011;16814;52.118;11.436;2023-04-24T09:21:46;2.65;;;1.20;;
29570;SDS011;16814;52.118;11.436;2023-04-24T09:24:18;2.58;;;1.10;;
29570;SDS011;16814;52.118;11.436;2023-04-24T09:26:48;1.83;;;1.00;;
29570;SDS011;16814;52.118;11.436;2023-04-24T09:29:26;3.53;;;1.40;;
29570;SDS011;16814;52.118;11.436;2023-04-24T09:31:53;3.30;;;1.40;;
29570;SDS011;16814;52.118;11.436;2023-04-24T09:34:26;2.53;;;1.50;;
29570;SDS011;16814;52.118;11.436;2023-04-24T09:36:54;3.70;;;1.55;;
29570;SDS011;16814;52.118;11.436;2023-04-24T09:39:21;3.43;;;1.43;;
29570;SDS011;16814;52.118;11.436;2023-04-24T09:41:52;3.55;;;1.55;;
29570;SDS011;16814;52.118;11.436;2023-04-24T09:44:24;3.90;;;1.80;;
29570;SDS011;16814;52.118;11.436;2023-04-24T09:46:58;1.90;;;1.70;;
29570;SDS011;16814;52.118;11.436;2023-04-24T09:49:26;1.80;;;1.40;;
29570;SDS011;16814;52.118;11.436;2023-04-24T09:52:02;3.25;;;1.30;;
29570;SDS011;16814;52.118;11.436;2023-04-24T09:54:33;4.43;;;1.40;;
29570;SDS011;16814;52.118;11.436;2023-04-24T09:57:00;4.65;;;1.55;;
29570;SDS011;16814;52.118;11.436;2023-04-24T09:59:27;4.22;;;1.60;;
29570;SDS011;16814;52.118;11.436;2023-04-24T10:01:55;4.27;;;1.30;;
29570;SDS011;16814;52.118;11.436;2023-04-24T10:04:22;2.10;;;1.30;;
29570;SDS011;16814;52.118;11.436;2023-04-24T10:06:51;3.55;;;1.40;;
29570;SDS011;16814;52.118;11.436;2023-04-24T10:09:22;3.63;;;1.70;;
29570;SDS011;16814;52.118;11.436;2023-04-24T10:11:52;2.05;;;1.52;;
29570;SDS011;16814;52.118;11.436;2023-04-24T10:14:27;6.47;;;1.67;;
29570;SDS011;16814;52.118;11.436;2023-04-24T10:16:54;3.67;;;1.48;;
29570;SDS011;16814;52.118;11.436;2023-04-24T10:19:25;3.20;;;1.55;;
29570;SDS011;16814;52.118;11.436;2023-04-24T10:21:56;5.95;;;1.35;;
29570;SDS011;16814;52.118;11.436;2023-04-24T10:24:24;3.40;;;1.30;;
29570;SDS011;16814;52.118;11.436;2023-04-24T10:26:51;3.53;;;1.60;;
29570;SDS011;16814;52.118;11.436;2023-04-24T10:29:20;2.67;;;1.50;;
29570;SDS011;16814;52.118;11.436;2023-04-24T10:31:48;2.40;;;1.30;;
29570;SDS011;16814;52.118;11.436;2023-04-24T10:34:14;2.33;;;1.27;;
29570;SDS011;16814;52.118;11.436;2023-04-24T10:36:48;2.15;;;1.33;;
29570;SDS011;16814;52.118;11.436;2023-04-24T10:39:18;2.40;;;1.30;;
29570;SDS011;16814;52.118;11.436;2023-04-24T10:41:46;3.03;;;1.42;;
29570;SDS011;16814;52.118;11.436;2023-04-24T10:44:17;2.67;;;1.58;;
29570;SDS011;16814;52.118;11.436;2023-04-24T10:46:47;3.23;;;1.50;;
29570;SDS011;16814;52.118;11.436;2023-04-24T10:49:29;3.03;;;1.50;;
29570;SDS011;16814;52.118;11.436;2023-04-24T10:52:00;2.47;;;1.48;;
29570;SDS011;16814;52.118;11.436;2023-04-24T10:54:28;2.75;;;1.50;;
29570;SDS011;16814;52.118;11.436;2023-04-24T10:59:44;3.13;;;1.50;;
29570;SDS011;16814;52.118;11.436;2023-04-24T11:02:11;4.05;;;1.60;;
29570;SDS011;16814;52.118;11.436;2023-04-24T11:04:43;2.80;;;1.48;;
29570;SDS011;16814;52.118;11.436;2023-04-24T11:07:10;3.05;;;1.60;;
29570;SDS011;16814;52.118;11.436;2023-04-24T11:09:37;2.80;;;1.50;;
29570;SDS011;16814;52.118;11.436;2023-04-24T11:12:08;1.88;;;1.30;;
29570;SDS011;16814;52.118;11.436;2023-04-24T11:17:32;2.90;;;1.65;;
29570;SDS011;16814;52.118;11.436;2023-04-24T11:20:04;2.33;;;1.33;;
29570;SDS011;16814;52.118;11.436;2023-04-24T11:22:37;2.00;;;1.40;;
29570;SDS011;16814;52.118;11.436;2023-04-24T11:25:12;2.85;;;1.70;;
29570;SDS011;16814;52.118;11.436;2023-04-24T11:27:42;2.45;;;1.45;;
29570;SDS011;16814;52.118;11.436;2023-04-24T11:30:12;3.25;;;1.65;;
29570;SDS011;16814;52.118;11.436;2023-04-24T11:32:50;3.20;;;1.60;;
29570;SDS011;16814;52.118;11.436;2023-04-24T11:35:22;3.13;;;1.50;;
29570;SDS011;16814;52.118;11.436;2023-04-24T11:37:50;3.17;;;1.90;;
29570;SDS011;16814;52.118;11.436;2023-04-24T11:40:20;5.53;;;2.00;;
29570;SDS011;16814;52.118;11.436;2023-04-24T11:42:53;5.25;;;1.85;;
29570;SDS011;16814;52.118;11.436;2023-04-24T11:45:26;2.65;;;1.80;;
29570;SDS011;16814;52.118;11.436;2023-04-24T11:47:55;3.58;;;1.70;;
29570;SDS011;16814;52.118;11.436;2023-04-24T11:50:24;3.85;;;2.10;;
29570;SDS011;16814;52.118;11.436;2023-04-24T11:52:54;4.97;;;1.70;;
29570;SDS011;16814;52.118;11.436;2023-04-24T11:55:25;3.50;;;1.58;;
29570;SDS011;16814;52.118;11.436;2023-04-24T11:57:53;2.75;;;1.50;;
29570;SDS011;16814;52.118;11.436;2023-04-24T12:00:28;2.30;;;1.50;;
29570;SDS011;16814;52.118;11.436;2023-04-24T12:03:04;2.20;;;1.50;;
29570;SDS011;16814;52.118;11.436;2023-04-24T12:05:38;1.80;;;1.30;;
29570;SDS011;16814;52.118;11.436;2023-04-24T12:08:05;2.28;;;1.40;;
29570;SDS011;16814;52.118;11.436;2023-04-24T12:10:32;2.95;;;1.50;;
29570;SDS011;16814;52.118;11.436;2023-04-24T12:13:01;3.72;;;1.55;;
29570;SDS011;16814;52.118;11.436;2023-04-24T12:15:34;3.40;;;1.20;;
29570;SDS011;16814;52.118;11.436;2023-04-24T12:18:06;2.08;;;1.45;;
29570;SDS011;16814;52.118;11.436;2023-04-24T12:20:37;2.00;;;1.33;;
29570;SDS011;16814;52.118;11.436;2023-04-24T12:23:05;3.78;;;1.40;;
29570;SDS011;16814;52.118;11.436;2023-04-24T12:25:33;4.03;;;1.25;;
29570;SDS011;16814;52.118;11.436;2023-04-24T12:30:30;3.20;;;1.40;;
29570;SDS011;16814;52.118;11.436;2023-04-24T12:33:11;3.00;;;1.60;;
29570;SDS011;16814;52.118;11.436;2023-04-24T12:35:45;1.80;;;1.40;;
29570;SDS011;16814;52.118;11.436;2023-04-24T12:38:13;2.10;;;1.20;;
29570;SDS011;16814;52.118;11.436;2023-04-24T12:40:43;1.80;;;1.40;;
29570;SDS011;16814;52.118;11.436;2023-04-24T12:43:19;3.63;;;1.35;;
29570;SDS011;16814;52.118;11.436;2023-04-24T12:46:02;1.65;;;1.30;;
29570;SDS011;16814;52.118;11.436;2023-04-24T12:48:28;2.45;;;1.60;;
29570;SDS011;16814;52.118;11.436;2023-04-24T12:50:59;1.87;;;1.20;;
29570;SDS011;16814;52.118;11.436;2023-04-24T12:53:27;3.17;;;1.30;;
29570;SDS011;16814;52.118;11.436;2023-04-24T12:55:56;2.20;;;1.40;;
29570;SDS011;16814;52.118;11.436;2023-04-24T12:58:22;6.57;;;1.60;;
29570;SDS011;16814;52.118;11.436;2023-04-24T13:00:48;3.50;;;1.70;;
29570;SDS011;16814;52.118;11.436;2023-04-24T13:03:15;4.10;;;1.55;;
29570;SDS011;16814;52.118;11.436;2023-04-24T13:05:42;7.20;;;1.40;;
29570;SDS011;16814;52.118;11.436;2023-04-24T13:08:10;3.35;;;1.45;;
29570;SDS011;16814;52.118;11.436;2023-04-24T13:10:38;3.03;;;1.10;;
29570;SDS011;16814;52.118;11.436;2023-04-24T13:13:06;2.67;;;1.20;;
29570;SDS011;16814;52.118;11.436;2023-04-24T13:15:33;2.60;;;1.20;;
29570;SDS011;16814;52.118;11.436;2023-04-24T13:17:59;3.00;;;1.33;;
29570;SDS011;16814;52.118;11.436;2023-04-24T13:20:27;2.75;;;1.30;;
29570;SDS011;16814;52.118;11.436;2023-04-24T13:22:56;4.82;;;1.50;;
29570;SDS011;16814;52.118;11.436;2023-04-24T13:25:23;3.95;;;1.48;;
29570;SDS011;16814;52.118;11.436;2023-04-24T13:27:51;1.98;;;1.40;;
29570;SDS011;16814;52.118;11.436;2023-04-24T13:30:18;2.13;;;1.20;;
29570;SDS011;16814;52.118;11.436;2023-04-24T13:32:46;5.28;;;1.40;;
29570;SDS011;16814;52.118;11.436;2023-04-24T13:35:13;2.03;;;1.10;;
29570;SDS011;16814;52.118;11.436;2023-04-24T13:37:42;2.00;;;1.20;;
29570;SDS011;16814;52.118;11.436;2023-04-24T13:40:09;4.65;;;1.30;;
29570;SDS011;16814;52.118;11.436;2023-04-24T13:42:36;4.68;;;1.30;;
29570;SDS011;16814;52.118;11.436;2023-04-24T13:45:03;2.72;;;1.20;;
29570;SDS011;16814;52.118;11.436;2023-04-24T13:47:30;1.73;;;0.90;;
29570;SDS011;16814;52.118;11.436;2023-04-24T13:49:55;2.80;;;0.90;;
29570;SDS011;16814;52.118;11.436;2023-04-24T13:52:22;1.67;;;1.10;;
29570;SDS011;16814;52.118;11.436;2023-04-24T13:54:50;3.92;;;1.25;;
29570;SDS011;16814;52.118;11.436;2023-04-24T13:57:17;2.47;;;1.30;;
29570;SDS011;16814;52.118;11.436;2023-04-24T13:59:44;2.25;;;1.30;;
29570;SDS011;16814;52.118;11.436;2023-04-24T14:02:11;3.67;;;1.30;;
29570;SDS011;16814;52.118;11.436;2023-04-24T14:04:38;2.30;;;1.20;;
29570;SDS011;16814;52.118;11.436;2023-04-24T14:07:05;1.53;;;1.40;;
29570;SDS011;16814;52.118;11.436;2023-04-24T14:09:33;2.10;;;1.20;;
29570;SDS011;16814;52.118;11.436;2023-04-24T14:12:00;4.20;;;1.30;;
29570;SDS011;16814;52.118;11.436;2023-04-24T14:14:29;1.35;;;1.00;;
29570;SDS011;16814;52.118;11.436;2023-04-24T14:16:55;3.47;;;1.50;;
29570;SDS011;16814;52.118;11.436;2023-04-24T14:19:23;1.10;;;1.00;;
29570;SDS011;16814;52.118;11.436;2023-04-24T14:21:50;2.20;;;0.70;;
29570;SDS011;16814;52.118;11.436;2023-04-24T14:24:16;4.60;;;0.50;;
29570;SDS011;16814;52.118;11.436;2023-04-24T14:26:44;1.40;;;0.70;;
29570;SDS011;16814;52.118;11.436;2023-04-24T14:29:11;1.75;;;0.45;;
29570;SDS011;16814;52.118;11.436;2023-04-24T14:31:39;2.00;;;0.50;;
29570;SDS011;16814;52.118;11.436;2023-04-24T14:34:07;8.50;;;0.80;;
29570;SDS011;16814;52.118;11.436;2023-04-24T14:36:34;1.08;;;0.70;;
29570;SDS011;16814;52.118;11.436;2023-04-24T14:39:01;1.20;;;0.80;;
29570;SDS011;16814;52.118;11.436;2023-04-24T14:41:33;1.02;;;0.85;;
29570;SDS011;16814;52.118;11.436;2023-04-24T14:44:03;1.95;;;1.05;;
29570;SDS011;16814;52.118;11.436;2023-04-24T14:46:29;2.50;;;0.85;;
29570;SDS011;16814;52.118;11.436;2023-04-24T14:49:01;2.13;;;0.90;;